createdAt,value
2023-03-28T00:01:05.452Z,98084.66
2023-03-28T00:03:39.769Z,98095.00
2023-03-28T00:06:18.678Z,98097.38
2023-03-28T00:08:47.646Z,98108.75
2023-03-28T00:11:25.369Z,98108.19
2023-03-28T00:14:01.073Z,98115.06
2023-03-28T00:16:32.801Z,98118.88
2023-03-28T00:19:07.016Z,98121.16
2023-03-28T00:21:39.825Z,98121.16
2023-03-28T00:24:13.823Z,98125.19
2023-03-28T00:26:43.009Z,98121.34
2023-03-28T00:29:16.615Z,98119.94
2023-03-28T00:31:44.290Z,98125.75
2023-03-28T00:34:12.445Z,98122.91
2023-03-28T00:36:41.700Z,98113.22
2023-03-28T00:39:10.481Z,98120.38
2023-03-28T00:41:42.373Z,98120.31
2023-03-28T00:45:03.954Z,98131.84
2023-03-28T00:47:57.895Z,98132.63
2023-03-28T00:50:31.588Z,98133.38
2023-03-28T00:53:05.162Z,98133.59
2023-03-28T00:55:44.974Z,98136.88
2023-03-28T00:58:23.272Z,98141.56
2023-03-28T01:00:56.666Z,98140.66
2023-03-28T01:03:30.536Z,98130.31
2023-03-28T01:05:59.341Z,98146.75
2023-03-28T01:08:40.842Z,98139.03
2023-03-28T01:11:08.588Z,98145.63
2023-03-28T01:13:43.141Z,98150.53
2023-03-28T01:16:14.270Z,98145.75
2023-03-28T01:18:47.129Z,98143.41
2023-03-28T01:21:20.349Z,98136.53
2023-03-28T01:24:40.588Z,98172.41
2023-03-28T01:27:41.986Z,98147.50
2023-03-28T01:30:36.896Z,98163.00
2023-03-28T01:34:25.018Z,98153.81
2023-03-28T01:37:23.791Z,98161.03
2023-03-28T01:40:11.439Z,98172.56
2023-03-28T01:43:15.945Z,98152.28
2023-03-28T01:46:22.412Z,98159.16
2023-03-28T01:49:28.965Z,98158.59
2023-03-28T01:52:06.955Z,98170.97
2023-03-28T01:54:49.237Z,98177.38
2023-03-28T01:57:26.506Z,98171.34
2023-03-28T02:00:24.549Z,98182.53
2023-03-28T02:03:13.962Z,98173.88
2023-03-28T02:05:56.554Z,98168.81
2023-03-28T02:08:30.108Z,98166.41
2023-03-28T02:11:18.263Z,98181.69
2023-03-28T02:14:19.233Z,98176.19
2023-03-28T02:17:04.641Z,98179.56
2023-03-28T02:19:51.721Z,98184.81
2023-03-28T02:22:52.965Z,98196.75
2023-03-28T02:25:39.204Z,98182.22
2023-03-28T02:28:33.605Z,98192.47
2023-03-28T02:31:12.010Z,98196.88
2023-03-28T02:33:50.089Z,98197.34
2023-03-28T02:36:46.152Z,98191.25
2023-03-28T02:39:39.371Z,98203.03
2023-03-28T02:42:20.787Z,98205.44
2023-03-28T02:45:29.664Z,98222.56
2023-03-28T02:48:33.029Z,98228.66
2023-03-28T02:51:13.444Z,98226.19
2023-03-28T02:54:14.083Z,98234.44
2023-03-28T02:57:24.327Z,98238.75
2023-03-28T03:00:08.177Z,98253.22
2023-03-28T03:02:36.055Z,98271.09
2023-03-28T03:05:04.040Z,98246.19
2023-03-28T03:07:32.923Z,98259.19
2023-03-28T03:10:00.871Z,98254.13
2023-03-28T03:12:28.387Z,98265.22
2023-03-28T03:15:01.143Z,98264.31
2023-03-28T03:17:48.009Z,98280.34
2023-03-28T03:20:18.972Z,98263.06
2023-03-28T03:22:46.710Z,98276.91
2023-03-28T03:25:14.764Z,98272.31
2023-03-28T03:28:05.956Z,98284.41
2023-03-28T03:30:33.654Z,98267.09
2023-03-28T03:33:27.164Z,98269.53
2023-03-28T03:36:00.851Z,98281.19
2023-03-28T03:38:29.150Z,98309.00
2023-03-28T03:40:56.738Z,98298.91
2023-03-28T03:43:24.850Z,98293.84
2023-03-28T03:45:52.548Z,98296.06
2023-03-28T03:48:20.045Z,98320.63
2023-03-28T03:50:47.547Z,98313.44
2023-03-28T03:53:16.841Z,98327.34
2023-03-28T03:55:50.933Z,98310.69
2023-03-28T03:58:20.457Z,98334.03
2023-03-28T04:00:49.399Z,98319.97
2023-03-28T04:03:34.354Z,98338.88
2023-03-28T04:06:05.309Z,98342.94
2023-03-28T04:08:34.448Z,98353.31
2023-03-28T04:11:02.860Z,98350.03
2023-03-28T04:13:37.817Z,98372.03
2023-03-28T04:16:07.523Z,98363.38
2023-03-28T04:18:50.561Z,98383.78
2023-03-28T04:21:27.700Z,98375.03
2023-03-28T04:23:57.074Z,98381.47
2023-03-28T04:26:41.742Z,98377.63
2023-03-28T04:29:12.631Z,98391.94
2023-03-28T04:31:50.283Z,98394.91
2023-03-28T04:34:38.902Z,98382.16
2023-03-28T04:37:15.400Z,98409.50
2023-03-28T04:39:55.802Z,98425.56
2023-03-28T04:42:41.963Z,98422.88
2023-03-28T04:45:15.006Z,98431.50
2023-03-28T04:47:43.976Z,98426.53
2023-03-28T04:50:17.527Z,98438.72
2023-03-28T04:52:45.647Z,98440.38
2023-03-28T04:55:16.235Z,98436.13
2023-03-28T04:57:44.679Z,98461.38
2023-03-28T05:00:16.914Z,98452.47
2023-03-28T05:03:06.047Z,98466.00
2023-03-28T05:05:47.823Z,98464.75
2023-03-28T05:08:18.612Z,98480.91
2023-03-28T05:10:47.301Z,98499.72
2023-03-28T05:13:16.829Z,98498.78
2023-03-28T05:15:53.468Z,98488.31
2023-03-28T05:18:53.134Z,98507.72
2023-03-28T05:21:28.616Z,98507.41
2023-03-28T05:23:56.878Z,98497.44
2023-03-28T05:26:28.823Z,98508.41
2023-03-28T05:28:57.029Z,98509.53
2023-03-28T05:31:26.209Z,98505.13
2023-03-28T05:34:06.802Z,98486.28
2023-03-28T05:36:42.860Z,98526.25
2023-03-28T05:39:20.560Z,98506.84
2023-03-28T05:41:48.101Z,98507.59
2023-03-28T05:44:18.782Z,98513.56
2023-03-28T05:47:12.245Z,98504.72
2023-03-28T05:49:39.746Z,98514.25
2023-03-28T05:52:07.300Z,98502.53
2023-03-28T05:54:34.977Z,98500.78
2023-03-28T05:57:02.549Z,98513.69
2023-03-28T05:59:30.146Z,98517.31
2023-03-28T06:01:58.520Z,98499.94
2023-03-28T06:04:26.353Z,98523.28
2023-03-28T06:06:53.846Z,98536.81
2023-03-28T06:09:26.389Z,98516.66
2023-03-28T06:11:59.671Z,98534.53
2023-03-28T06:14:28.388Z,98519.25
2023-03-28T06:16:59.770Z,98516.84
2023-03-28T06:19:34.660Z,98541.84
2023-03-28T06:22:03.037Z,98539.47
2023-03-28T06:24:31.445Z,98541.13
2023-03-28T06:26:59.866Z,98547.56
2023-03-28T06:29:27.418Z,98543.94
2023-03-28T06:32:04.359Z,98580.16
2023-03-28T06:34:31.808Z,98582.03
2023-03-28T06:37:03.137Z,98578.44
2023-03-28T06:39:44.503Z,98594.03
2023-03-28T06:42:12.221Z,98595.09
2023-03-28T06:44:50.677Z,98591.06
2023-03-28T06:47:38.366Z,98589.88
2023-03-28T06:50:07.818Z,98597.19
2023-03-28T06:52:54.666Z,98595.44
2023-03-28T06:55:22.886Z,98588.94
2023-03-28T06:57:50.422Z,98633.56
2023-03-28T07:00:27.390Z,98651.59
2023-03-28T07:03:14.855Z,98626.41
2023-03-28T07:05:43.883Z,98604.69
2023-03-28T07:08:14.135Z,98639.88
2023-03-28T07:10:42.668Z,98622.72
2023-03-28T07:13:13.621Z,98627.69
2023-03-28T07:16:06.843Z,98618.22
2023-03-28T07:18:37.261Z,98653.22
2023-03-28T07:21:17.773Z,98617.13
2023-03-28T07:23:45.859Z,98619.19
2023-03-28T07:26:16.834Z,98635.25
2023-03-28T07:28:46.273Z,98590.31
2023-03-28T07:31:13.856Z,98607.69
2023-03-28T07:33:41.460Z,98621.06
2023-03-28T07:36:20.131Z,98626.34
2023-03-28T07:38:51.720Z,98606.75
2023-03-28T07:41:22.642Z,98634.38
2023-03-28T07:43:50.803Z,98627.06
2023-03-28T07:46:21.018Z,98614.13
2023-03-28T07:48:48.687Z,98636.44
2023-03-28T07:51:17.726Z,98616.94
2023-03-28T07:53:46.118Z,98627.69
2023-03-28T07:56:14.206Z,98622.50
2023-03-28T07:59:07.901Z,98645.81
2023-03-28T08:01:36.007Z,98626.91
2023-03-28T08:04:05.316Z,98641.88
2023-03-28T08:06:45.660Z,98637.28
2023-03-28T08:09:17.046Z,98648.47
2023-03-28T08:11:48.881Z,98665.63
2023-03-28T08:14:18.867Z,98652.00
2023-03-28T08:16:47.181Z,98664.16
2023-03-28T08:19:15.722Z,98666.31
2023-03-28T08:22:07.800Z,98674.16
2023-03-28T08:24:43.833Z,98650.97
2023-03-28T08:27:14.271Z,98646.19
2023-03-28T08:29:44.478Z,98652.69
2023-03-28T08:32:12.486Z,98650.44
2023-03-28T08:34:42.961Z,98672.69
2023-03-28T08:37:15.768Z,98670.56
2023-03-28T08:39:47.430Z,98686.47
2023-03-28T08:42:36.487Z,98728.97
2023-03-28T08:45:14.127Z,98688.94
2023-03-28T08:48:13.125Z,98704.94
2023-03-28T08:51:16.503Z,98706.28
2023-03-28T08:54:14.658Z,98710.69
2023-03-28T08:56:53.340Z,98684.78
2023-03-28T08:59:45.147Z,98697.53
2023-03-28T09:02:26.936Z,98694.47
2023-03-28T09:05:08.189Z,98692.34
2023-03-28T09:08:29.103Z,98714.91
2023-03-28T09:11:38.831Z,98724.28
2023-03-28T09:14:49.031Z,98741.47
2023-03-28T09:17:36.138Z,98747.19
2023-03-28T09:20:43.306Z,98741.63
2023-03-28T09:24:06.172Z,98738.09
2023-03-28T09:27:39.015Z,98730.06
2023-03-28T09:30:27.628Z,98765.59
2023-03-28T09:33:01.146Z,98758.38
2023-03-28T09:35:31.544Z,98761.13
2023-03-28T09:38:07.041Z,98749.63
2023-03-28T09:40:42.724Z,98744.81
2023-03-28T09:43:47.169Z,98761.88
2023-03-28T09:47:00.592Z,98764.25
2023-03-28T09:49:43.867Z,98788.16
2023-03-28T09:52:19.148Z,98783.06
2023-03-28T09:54:47.723Z,98793.06
2023-03-28T09:57:15.582Z,98768.88
2023-03-28T09:59:46.193Z,98804.19
2023-03-28T10:02:32.509Z,98790.81
2023-03-28T10:05:34.770Z,98797.63
2023-03-28T10:08:23.240Z,98795.94
2023-03-28T10:11:14.732Z,98816.47
2023-03-28T10:13:47.419Z,98841.72
2023-03-28T10:16:31.650Z,98841.44
2023-03-28T10:19:42.193Z,98827.88
2023-03-28T10:22:25.618Z,98827.09
2023-03-28T10:24:55.400Z,98832.66
2023-03-28T10:27:31.972Z,98830.72
2023-03-28T10:30:32.064Z,98830.59
2023-03-28T10:33:17.900Z,98832.44
2023-03-28T10:36:09.952Z,98833.53
2023-03-28T10:38:46.658Z,98816.56
2023-03-28T10:41:32.646Z,98844.38
2023-03-28T10:44:19.400Z,98820.78
2023-03-28T10:47:18.941Z,98851.31
2023-03-28T10:49:56.353Z,98831.72
2023-03-28T10:52:54.793Z,98845.25
2023-03-28T10:55:40.667Z,98845.84
2023-03-28T10:58:39.980Z,98851.81
2023-03-28T11:01:33.465Z,98845.63
2023-03-28T11:04:23.462Z,98831.03
2023-03-28T11:07:22.579Z,98843.13
2023-03-28T11:10:25.144Z,98851.53
2023-03-28T11:13:35.008Z,98833.63
2023-03-28T11:16:45.131Z,98835.91
2023-03-28T11:20:03.972Z,98829.72
2023-03-28T11:23:08.558Z,98845.47
2023-03-28T11:26:02.703Z,98844.19
2023-03-28T11:29:06.136Z,98860.06
2023-03-28T11:31:46.799Z,98886.19
2023-03-28T11:34:39.245Z,98872.28
2023-03-28T11:37:27.953Z,98857.94
2023-03-28T11:40:11.679Z,98882.94
2023-03-28T11:43:02.236Z,98910.59
2023-03-28T11:45:51.876Z,98876.22
2023-03-28T11:48:47.124Z,98886.06
2023-03-28T11:52:16.654Z,98887.09
2023-03-28T11:54:51.282Z,98879.41
2023-03-28T11:57:21.768Z,98899.09
2023-03-28T12:00:14.866Z,98877.81
2023-03-28T12:02:55.682Z,98885.31
2023-03-28T12:05:43.773Z,98895.69
2023-03-28T12:08:37.475Z,98899.03
2023-03-28T12:11:37.028Z,98895.22
2023-03-28T12:14:48.031Z,98920.56
2023-03-28T12:17:47.100Z,98913.00
2023-03-28T12:20:29.274Z,98910.34
2023-03-28T12:23:04.536Z,98929.47
2023-03-28T12:31:57.676Z,98919.56
2023-03-28T12:34:44.300Z,98933.81
2023-03-28T12:37:38.196Z,98949.03
2023-03-28T13:01:56.680Z,98971.22
2023-03-28T13:05:15.362Z,98980.56
2023-03-28T13:07:57.775Z,99004.09
2023-03-28T13:10:57.631Z,98982.75
2023-03-28T13:13:34.296Z,98988.72
2023-03-28T13:16:14.242Z,98984.88
2023-03-28T13:19:04.528Z,98976.72
2023-03-28T13:21:55.910Z,98990.50
2023-03-28T13:24:27.177Z,99013.72
2023-03-28T13:27:00.120Z,99020.53
2023-03-28T13:29:52.018Z,99028.97
2023-03-28T13:32:24.407Z,99027.34
2023-03-28T13:35:05.469Z,99017.38
2023-03-28T13:38:23.032Z,99029.03
2023-03-28T13:41:09.563Z,99044.94
2023-03-28T13:43:54.498Z,99043.97
2023-03-28T13:46:48.040Z,99035.28
2023-03-28T13:49:36.506Z,99035.44
2023-03-28T13:52:12.578Z,99045.28
2023-03-28T13:54:40.057Z,99022.16
2023-03-28T13:57:17.773Z,99040.22
2023-03-28T13:59:54.559Z,99038.56
2023-03-28T14:02:47.144Z,99051.25
2023-03-28T14:05:28.055Z,99050.16
2023-03-28T14:08:18.744Z,99053.81
2023-03-28T14:10:48.017Z,99057.31
2023-03-28T14:13:26.107Z,99061.47
2023-03-28T14:15:55.475Z,99065.75
2023-03-28T14:18:34.462Z,99058.41
2023-03-28T14:21:02.831Z,99100.53
2023-03-28T14:23:37.266Z,99063.50
2023-03-28T14:26:15.328Z,99096.31
2023-03-28T14:28:46.077Z,99070.63
2023-03-28T14:31:40.474Z,99080.38
2023-03-28T14:34:26.524Z,99082.13
2023-03-28T14:37:01.318Z,99085.84
2023-03-28T14:39:33.136Z,99096.09
2023-03-28T14:42:08.509Z,99097.34
2023-03-28T14:44:41.594Z,99105.34
2023-03-28T14:47:30.130Z,99119.44
2023-03-28T14:50:18.173Z,99117.06
2023-03-28T14:52:45.947Z,99107.06
2023-03-28T14:55:23.924Z,99137.94
2023-03-28T14:57:53.702Z,99123.84
2023-03-28T15:00:27.606Z,99155.91
2023-03-28T15:02:56.228Z,99120.28
2023-03-28T15:05:24.607Z,99139.56
2023-03-28T15:08:01.349Z,99148.50
2023-03-28T15:10:30.814Z,99160.97
2023-03-28T15:13:14.062Z,99144.25
2023-03-28T15:15:48.093Z,99135.38
2023-03-28T15:18:21.346Z,99158.34
2023-03-28T15:20:52.651Z,99141.09
2023-03-28T15:23:29.363Z,99149.56
2023-03-28T15:26:01.228Z,99168.00
2023-03-28T15:28:30.691Z,99174.16
2023-03-28T15:31:01.349Z,99176.53
2023-03-28T15:33:34.581Z,99180.97
2023-03-28T15:36:34.845Z,99177.03
2023-03-28T15:39:30.432Z,99191.34
2023-03-28T15:42:22.699Z,99192.50
2023-03-28T15:44:59.173Z,99195.28
2023-03-28T15:47:30.897Z,99197.63
2023-03-28T15:50:08.962Z,99204.88
2023-03-28T15:52:36.969Z,99211.78
2023-03-28T15:55:07.138Z,99220.72
2023-03-28T15:57:35.498Z,99223.00
2023-03-28T16:00:04.398Z,99220.50
2023-03-28T16:02:40.836Z,99231.63
2023-03-28T16:05:11.002Z,99244.69
2023-03-28T16:07:51.535Z,99245.81
2023-03-28T16:10:25.264Z,99249.16
2023-03-28T16:13:14.618Z,99251.31
2023-03-28T16:15:53.914Z,99256.06
2023-03-28T16:18:34.486Z,99251.25
2023-03-28T16:21:04.420Z,99260.03
2023-03-28T16:23:31.917Z,99255.19
2023-03-28T16:25:59.705Z,99264.28
2023-03-28T16:28:27.457Z,99279.88
2023-03-28T16:30:54.990Z,99280.97
2023-03-28T16:33:23.585Z,99291.13
2023-03-28T16:35:55.043Z,99299.41
2023-03-28T16:38:23.410Z,99297.28
2023-03-28T16:40:51.342Z,99297.03
2023-03-28T16:43:18.894Z,99300.19
2023-03-28T16:45:49.993Z,99305.94
2023-03-28T16:48:17.798Z,99307.91
2023-03-28T16:50:58.666Z,99313.06
2023-03-28T16:53:26.326Z,99321.22
2023-03-28T16:55:53.940Z,99317.81
2023-03-28T16:58:21.686Z,99318.31
2023-03-28T17:00:52.073Z,99326.78
2023-03-28T17:03:20.575Z,99330.09
2023-03-28T17:05:48.463Z,99335.03
2023-03-28T17:08:16.211Z,99339.06
2023-03-28T17:10:47.327Z,99347.72
2023-03-28T17:13:15.618Z,99358.31
2023-03-28T17:15:43.355Z,99351.88
2023-03-28T17:18:11.556Z,99354.84
2023-03-28T17:20:40.670Z,99367.66
2023-03-28T17:23:11.208Z,99368.16
2023-03-28T17:25:53.903Z,99374.56
2023-03-28T17:28:24.785Z,99364.56
2023-03-28T17:30:52.561Z,99374.13
2023-03-28T17:33:21.045Z,99375.75
2023-03-28T17:36:11.997Z,99380.44
2023-03-28T17:38:39.653Z,99385.53
2023-03-28T17:41:08.332Z,99381.72
2023-03-28T17:43:35.936Z,99384.78
2023-03-28T17:46:04.335Z,99392.06
2023-03-28T17:48:32.287Z,99393.91
2023-03-28T17:51:03.452Z,99391.72
2023-03-28T17:53:31.166Z,99407.56
2023-03-28T17:56:00.966Z,99407.22
2023-03-28T17:58:30.903Z,99409.31
2023-03-28T18:01:01.230Z,99413.38
2023-03-28T18:03:31.452Z,99418.63
2023-03-28T18:06:22.368Z,99414.38
2023-03-28T18:08:49.880Z,99414.03
2023-03-28T18:11:20.414Z,99423.59
2023-03-28T18:13:52.668Z,99423.38
2023-03-28T18:16:20.422Z,99431.31
2023-03-28T18:18:48.064Z,99433.22
2023-03-28T18:21:17.352Z,99435.16
2023-03-28T18:23:46.228Z,99432.28
2023-03-28T18:26:17.021Z,99439.38
2023-03-28T18:28:47.557Z,99436.50
2023-03-28T18:31:20.182Z,99445.59
2023-03-28T18:33:49.435Z,99440.72
2023-03-28T18:36:20.435Z,99448.38
2023-03-28T18:38:50.036Z,99455.06
2023-03-28T18:41:19.726Z,99464.94
2023-03-28T18:43:47.393Z,99465.94
2023-03-28T18:46:16.430Z,99465.19
2023-03-28T18:48:47.681Z,99469.31
2023-03-28T18:51:15.882Z,99479.50
2023-03-28T18:53:44.065Z,99481.56
2023-03-28T18:56:13.671Z,99483.91
2023-03-28T18:58:41.509Z,99486.66
2023-03-28T19:01:11.537Z,99488.50
2023-03-28T19:03:42.464Z,99497.88
2023-03-28T19:06:15.319Z,99501.75
2023-03-28T19:08:45.220Z,99514.91
2023-03-28T19:11:19.578Z,99522.00
2023-03-28T19:13:50.536Z,99544.41
2023-03-28T19:16:19.453Z,99542.19
2023-03-28T19:18:48.118Z,99539.31
2023-03-28T19:21:17.833Z,99537.75
2023-03-28T19:23:48.903Z,99549.06
2023-03-28T19:26:18.325Z,99555.41
2023-03-28T19:28:47.433Z,99565.41
2023-03-28T19:31:15.607Z,99565.16
2023-03-28T19:33:44.974Z,99571.50
2023-03-28T19:36:12.748Z,99575.13
2023-03-28T19:38:41.027Z,99589.75
2023-03-28T19:41:19.218Z,99597.84
2023-03-28T19:43:48.763Z,99599.66
2023-03-28T19:46:24.383Z,99599.09
2023-03-28T19:48:59.658Z,99601.09
2023-03-28T19:51:28.646Z,99598.50
2023-03-28T19:53:57.175Z,99599.06
2023-03-28T19:56:24.951Z,99605.13
2023-03-28T19:58:54.826Z,99602.56
2023-03-28T20:01:22.413Z,99596.56
2023-03-28T20:03:53.115Z,99601.28
2023-03-28T20:06:22.992Z,99602.97
2023-03-28T20:08:51.068Z,99594.19
2023-03-28T20:11:19.212Z,99607.69
2023-03-28T20:13:46.858Z,99601.50
2023-03-28T20:16:14.895Z,99608.72
2023-03-28T20:18:42.604Z,99613.69
2023-03-28T20:21:13.827Z,99617.59
2023-03-28T20:23:41.940Z,99624.06
2023-03-28T20:26:16.194Z,99622.81
2023-03-28T20:28:47.821Z,99621.50
2023-03-28T20:31:16.211Z,99622.78
2023-03-28T20:33:44.100Z,99629.50
2023-03-28T20:36:12.275Z,99630.84
2023-03-28T20:38:41.383Z,99624.09
2023-03-28T20:41:13.863Z,99621.75
2023-03-28T20:43:47.092Z,99625.38
2023-03-28T20:46:20.205Z,99630.06
2023-03-28T20:48:56.826Z,99646.72
2023-03-28T20:51:26.100Z,99652.94
2023-03-28T20:53:59.672Z,99647.00
2023-03-28T20:56:30.081Z,99662.81
2023-03-28T20:58:59.628Z,99660.75
2023-03-28T21:01:30.167Z,99670.34
2023-03-28T21:04:00.057Z,99661.00
2023-03-28T21:06:36.667Z,99668.75
2023-03-28T21:09:10.837Z,99680.41
2023-03-28T21:11:39.588Z,99680.91
2023-03-28T21:14:10.405Z,99693.13
2023-03-28T21:16:38.084Z,99701.63
2023-03-28T21:19:06.194Z,99703.94
2023-03-28T21:21:36.540Z,99697.72
2023-03-28T21:24:05.387Z,99698.47
2023-03-28T21:26:33.035Z,99686.22
2023-03-28T21:29:00.929Z,99698.41
2023-03-28T21:31:30.156Z,99705.19
2023-03-28T21:33:59.282Z,99708.28
2023-03-28T21:36:28.068Z,99723.06
2023-03-28T21:38:58.860Z,99709.59
2023-03-28T21:41:29.652Z,99715.03
2023-03-28T21:43:57.910Z,99714.31
2023-03-28T21:46:28.434Z,99727.03
2023-03-28T21:48:56.218Z,99723.13
2023-03-28T21:51:23.933Z,99727.81
2023-03-28T21:53:52.393Z,99722.06
2023-03-28T21:56:20.044Z,99740.81
2023-03-28T21:58:47.552Z,99726.28
2023-03-28T22:01:18.399Z,99734.56
2023-03-28T22:03:47.598Z,99737.94
2023-03-28T22:06:17.727Z,99733.50
2023-03-28T22:08:51.785Z,99731.19
2023-03-28T22:11:27.788Z,99723.41
2023-03-28T22:14:04.961Z,99723.41
2023-03-28T22:16:38.598Z,99734.56
2023-03-28T22:19:11.373Z,99729.91
2023-03-28T22:21:38.869Z,99733.03
2023-03-28T22:24:13.176Z,99733.03
2023-03-28T22:26:44.967Z,99734.31
2023-03-28T22:29:12.704Z,99741.78
2023-03-28T22:31:40.600Z,99747.72
2023-03-28T22:34:13.080Z,99752.91
2023-03-28T22:36:41.088Z,99742.31
2023-03-28T22:39:08.543Z,99747.72
2023-03-28T22:41:36.258Z,99750.81
2023-03-28T22:44:04.162Z,99757.78
2023-03-28T22:46:31.802Z,99758.38
2023-03-28T22:49:04.581Z,99764.75
2023-03-28T22:51:32.028Z,99764.00
2023-03-28T22:54:01.905Z,99780.38
2023-03-28T22:56:29.652Z,99785.56
2023-03-28T22:59:01.304Z,99774.97
2023-03-28T23:01:29.178Z,99790.72
2023-03-28T23:03:57.069Z,99798.53
2023-03-28T23:06:24.612Z,99791.22
2023-03-28T23:08:52.204Z,99791.78
2023-03-28T23:11:22.713Z,99802.16
2023-03-28T23:13:50.604Z,99799.56
2023-03-28T23:16:18.455Z,99805.00
2023-03-28T23:18:45.964Z,99810.72
2023-03-28T23:21:13.564Z,99800.09
2023-03-28T23:23:42.342Z,99800.00
2023-03-28T23:26:09.884Z,99801.13
2023-03-28T23:28:37.317Z,99798.25
2023-03-28T23:31:07.134Z,99819.19
2023-03-28T23:33:34.729Z,99806.50
2023-03-28T23:36:02.223Z,99813.72
2023-03-28T23:38:29.742Z,99816.81
2023-03-28T23:40:57.266Z,99815.78
2023-03-28T23:43:26.244Z,99818.53
2023-03-28T23:45:53.816Z,99805.09
2023-03-28T23:48:21.275Z,99816.28
2023-03-28T23:50:48.740Z,99822.97
2023-03-28T23:53:16.668Z,99815.06
2023-03-28T23:55:44.137Z,99811.75
2023-03-28T23:58:11.614Z,99828.47
